Terminal Aerodrome Forecast
Issued by NWS Cleveland, OH

Home | Current Version | Previous Version | Graphics & Text | Print | Product List | Glossary On
Versions: 1 2 3 4 5 6 7 8 9 10 11 12 13 14
000
FTUS41 KCLE 240256 AAA
TAFCAK
TAF AMD
KCAK 240256Z 2403/2424 02008KT P6SM SCT008 OVC015
     FM241400 06012KT P6SM SCT015 OVC025
     FM241800 04010KT P6SM SCT025 BKN035=

USA.gov is the U.S. government's official web portal to all federal, state and local government web resources and services.